SBOSBO GRU / SBGR
Speedbird OnlineSpeedbird Online GRU / SBGR

Guarulhos - Governador André Franco Montoro International Airport
05:25 17°C

Location Sao Paulo, Brazil
Latitude: -23.435556411743164
Longitude: -46.47305679321289
Web Airport Website | Wikipedia
Altitude 750 Meter / 2459 Feet
Distance 9,490 KM / 5,897 Miles
from London.
Time Zone UTC -3 hours (America/Sao_Paulo)
Codes IATA: GRU
ICAO: SBGR
Currency £1 equals BRL 5.89
Runways
RunwayLength (m)Surface
09L3700Asphalt
09R3000Asphalt
27L3000Asphalt
27R3700Asphalt
Radio
TypeDescriptionFrequency
APPSAO PAULO APP119.8
ATISATIS127.75
CLDCLNC DEL121
GNDGND121.7
ILS:RWY 27L111.1
OPSSAO PAULO OPS122.5
TWRTWR118.4
Live ATC
METAR SBGR 060800Z 07010KT 9999 BKN023 17/15 Q1016
TAF TAF SBGR 060400Z 0606/0712 07005KT 9999 BKN016 TN16/0609Z TX29/0618Z PROB30 0606/0611 5000 BR BKN009 BECMG 0611/0613 CAVOK BECMG 0614/0615 33010KT SCT040 PROB30 0619/0622 05010KT 8000 TSRA BKN030 FEW040CB BECMG 0623/0701 03005KT BECMG 0707/0709 33010KT 6000 RA BKN013 RMK PGG
Weather As Of 06 Oct 2022 05:25
Description Broken clouds
Wind 19 km/h from East (70°)
Cloud Cover 75%
Precipitation Rain: none, Snow: none
Sunrise 05:41
Sunset 18:06
Lounges Executive Lounge GRU Airport, Terminal 3
American Airlines Admirals Club, Terminal 3
LATAM VIP Lounge , Terminal 3
Rotations During the last 90 days there were
59 flights from EZE
57 flights from LHR
62 flights to EZE
61 flights to LHR


© 2017-2022 Speedbird Online